^^
Saratoga-Weather Station Historical Data
Daily Summary for September 20, 2021 Units:  Metric    English   Both
Daily Weekly Monthly Yearly Custom
  High: Low: Average:
Temperature: 16.7 °C 8.7 °C 13.6 °C
Dew Point: 9 °C 6.7 °C 7.9 °C
Humidity: 93% 53% 70%
Wind Speed: 14.3km/h 0km/h 3.6km/h
Wind Gust: 20.9km/h - -
Wind- - WSW
Pressure: 1022.4 hPa 1013.2 hPa -
Precipitation: 0.0 mm    
Historical Graphs
 
 
Tabular Data for September 20, 2021
Time Temperature Dew Point Pressure Wind Wind Speed Wind Gust Humidity Rainfall Rate (Hourly) solar
06:49 8.7 °C 7.6 °C 1021.3 hPa Calm   1.6 km/h 93% 0.0 mm 47 W/m2
06:54 8.8 °C 7.7 °C 1021.3 hPa Calm     93% 0.0 mm 56 W/m2
06:59 8.8 °C 7.7 °C 1021.3 hPa West 4.7 km/h 6.4 km/h 93% 0.0 mm 49 W/m2
07:04 8.9 °C 7.8 °C 1021.3 hPa Calm   4.8 km/h 93% 0.0 mm 56 W/m2
07:09 8.9 °C 7.8 °C 1021.3 hPa WSW 7.9 km/h 8 km/h 93% 0.0 mm 60 W/m2
07:14 9 °C 7.9 °C 1021.3 hPa Calm   3.2 km/h 93% 0.0 mm 67 W/m2
07:19 9 °C 7.8 °C 1021.3 hPa West 3.2 km/h 8 km/h 92% 0.0 mm 69 W/m2
07:24 9.1 °C 7.9 °C 1021.3 hPa West 3.2 km/h 3.2 km/h 92% 0.0 mm 84 W/m2
07:29 9.1 °C 7.9 °C 1021.3 hPa West 3.2 km/h 4.8 km/h 92% 0.0 mm 107 W/m2
07:34 9.3 °C 8.1 °C 1021.3 hPa WNW 4.7 km/h 9.7 km/h 92% 0.0 mm 97 W/m2
07:39 9.4 °C 8.2 °C 1021.7 hPa WNW 11.1 km/h 12.9 km/h 92% 0.0 mm 121 W/m2
07:44 9.5 °C 8.3 °C 1021.7 hPa SSW 6.4 km/h 11.3 km/h 92% 0.0 mm 128 W/m2
07:49 9.7 °C 8.3 °C 1021.7 hPa WNW 4.7 km/h 12.9 km/h 91% 0.0 mm 244 W/m2
07:54 9.9 °C 8.3 °C 1021.7 hPa WNW 6.4 km/h 9.7 km/h 90% 0.0 mm 132 W/m2
07:59 9.9 °C 8.2 °C 1021.7 hPa West 6.4 km/h 14.5 km/h 89% 0.0 mm 123 W/m2
08:04 9.8 °C 7.7 °C 1021.7 hPa West 6.4 km/h 12.9 km/h 87% 0.0 mm 86 W/m2
08:09 9.8 °C 7.9 °C 1021.7 hPa West 9.7 km/h 14.5 km/h 88% 0.0 mm 105 W/m2
08:14 10 °C 8.3 °C 1021.7 hPa West 13 km/h 14.5 km/h 89% 0.0 mm 98 W/m2
08:19 10 °C 8.1 °C 1021.7 hPa WNW 4.7 km/h 12.9 km/h 88% 0.0 mm 113 W/m2
08:24 9.9 °C 7.8 °C 1022.0 hPa WNW 11.1 km/h 16.1 km/h 87% 0.0 mm 125 W/m2
08:29 9.8 °C 7.7 °C 1022.0 hPa West 11.1 km/h 14.5 km/h 87% 0.0 mm 116 W/m2
08:34 9.9 °C 7.8 °C 1022.0 hPa West 4.7 km/h 16.1 km/h 87% 0.0 mm 174 W/m2
08:39 10.1 °C 8.2 °C 1022.0 hPa West 3.2 km/h 6.4 km/h 88% 0.0 mm 171 W/m2
08:44 10.1 °C 7.9 °C 1022.0 hPa West 6.4 km/h 12.9 km/h 86% 0.0 mm 90 W/m2
08:49 10.1 °C 7.9 °C 1022.0 hPa West 3.2 km/h 11.3 km/h 86% 0.0 mm 120 W/m2
08:54 10.2 °C 8 °C 1022.0 hPa NW 3.2 km/h 11.3 km/h 86% 0.0 mm 186 W/m2
08:59 10.3 °C 7.9 °C 1022.0 hPa WNW 3.2 km/h 6.4 km/h 85% 0.0 mm 225 W/m2
09:04 10.3 °C 7.9 °C 1022.4 hPa West 13 km/h 12.9 km/h 85% 0.0 mm 190 W/m2
09:09 10.2 °C 7.8 °C 1022.4 hPa West 6.4 km/h 11.3 km/h 85% 0.0 mm 153 W/m2
09:14 10.1 °C 7.7 °C 1022.4 hPa WNW 6.4 km/h 9.7 km/h 85% 0.0 mm 232 W/m2
09:19 10.1 °C 7.5 °C 1022.4 hPa WNW 1.4 km/h 11.3 km/h 84% 0.0 mm 243 W/m2
09:24 10.3 °C 7.9 °C 1022.4 hPa SW 1.4 km/h 6.4 km/h 85% 0.0 mm 192 W/m2
09:29 10.3 °C 8.1 °C 1022.0 hPa WNW 3.2 km/h 6.4 km/h 86% 0.0 mm 179 W/m2
09:34 10.4 °C 8.2 °C 1022.0 hPa Calm   3.2 km/h 86% 0.0 mm 179 W/m2
09:39 10.5 °C 8.3 °C 1022.4 hPa West 3.2 km/h 6.4 km/h 86% 0.0 mm 202 W/m2
09:44 10.4 °C 8 °C 1022.0 hPa WSW 1.4 km/h 4.8 km/h 85% 0.0 mm 234 W/m2
09:49 10.4 °C 7.8 °C 1022.0 hPa NW 4.7 km/h 12.9 km/h 84% 0.0 mm 229 W/m2
09:54 10.4 °C 7.8 °C 1022.4 hPa West 4.7 km/h 9.7 km/h 84% 0.0 mm 264 W/m2
09:59 10.5 °C 7.9 °C 1022.4 hPa West 11.1 km/h 11.3 km/h 84% 0.0 mm 221 W/m2
10:04 10.6 °C 8 °C 1022.4 hPa West 6.4 km/h 8 km/h 84% 0.0 mm 216 W/m2
10:09 10.4 °C 7.6 °C 1022.4 hPa WNW 1.4 km/h 8 km/h 83% 0.0 mm 248 W/m2
10:14 10.4 °C 7.6 °C 1022.4 hPa Calm   4.8 km/h 83% 0.0 mm 264 W/m2
10:19 10.6 °C 8 °C 1022.4 hPa WSW 6.4 km/h 9.7 km/h 84% 0.0 mm 269 W/m2
10:24 10.8 °C 8 °C 1022.4 hPa West 9.7 km/h 12.9 km/h 83% 0.0 mm 506 W/m2
10:29 10.9 °C 8.1 °C 1022.4 hPa WNW 14.3 km/h 14.5 km/h 83% 0.0 mm 367 W/m2
10:34 10.9 °C 7.9 °C 1022.4 hPa WSW 7.9 km/h 11.3 km/h 82% 0.0 mm 309 W/m2
10:39 11 °C 8 °C 1022.4 hPa NE 1.4 km/h 9.7 km/h 82% 0.0 mm 292 W/m2
10:44 11.2 °C 8.1 °C 1022.4 hPa WNW 3.2 km/h 4.8 km/h 81% 0.0 mm 385 W/m2
10:49 11.4 °C 8.1 °C 1022.4 hPa West 1.4 km/h 14.5 km/h 80% 0.0 mm 322 W/m2
10:54 11.5 °C 8.2 °C 1022.4 hPa WNW 6.4 km/h 11.3 km/h 80% 0.0 mm 313 W/m2
10:59 11.4 °C 8.1 °C 1022.4 hPa West 4.7 km/h 11.3 km/h 80% 0.0 mm 350 W/m2
11:04 11.4 °C 8.1 °C 1022.4 hPa WSW 4.7 km/h 16.1 km/h 80% 0.0 mm 399 W/m2
11:09 11.4 °C 8.1 °C 1022.4 hPa WNW 4.7 km/h 4.8 km/h 80% 0.0 mm 570 W/m2
11:14 11.5 °C 8 °C 1022.4 hPa West 3.2 km/h 4.8 km/h 79% 0.0 mm 422 W/m2
11:19 11.3 °C 7.6 °C 1022.4 hPa NW 1.4 km/h 9.7 km/h 78% 0.0 mm 522 W/m2
11:25 11.4 °C 8.1 °C 1022.4 hPa WNW 7.9 km/h 12.9 km/h 80% 0.0 mm 429 W/m2
11:30 11.4 °C 7.9 °C 1022.4 hPa North 3.2 km/h 12.9 km/h 79% 0.0 mm 432 W/m2
11:35 11.6 °C 8.1 °C 1022.4 hPa West 9.7 km/h 16.1 km/h 79% 0.0 mm 425 W/m2
11:40 11.7 °C 8.2 °C 1022.0 hPa West 4.7 km/h 6.4 km/h 79% 0.0 mm 255 W/m2
11:45 11.8 °C 8.3 °C 1022.0 hPa NW 1.4 km/h 4.8 km/h 79% 0.0 mm 520 W/m2
11:50 12.1 °C 8.2 °C 1022.0 hPa Calm   4.8 km/h 77% 0.0 mm 399 W/m2
11:55 12.3 °C 8.2 °C 1022.0 hPa WNW 6.4 km/h 8 km/h 76% 0.0 mm 387 W/m2
12:00 12.5 °C 8.4 °C 1022.0 hPa NW 13 km/h 12.9 km/h 76% 0.0 mm 359 W/m2
12:05 12.7 °C 8.6 °C 1022.0 hPa WSW 6.4 km/h 16.1 km/h 76% 0.0 mm 991 W/m2
12:10 12.9 °C 8.4 °C 1022.0 hPa ENE 1.4 km/h 12.9 km/h 74% 0.0 mm 1150 W/m2
12:15 13.3 °C 9 °C 1022.0 hPa NW 7.9 km/h 16.1 km/h 75% 0.0 mm 1121 W/m2
12:20 13.8 °C 9 °C 1021.7 hPa NNW 6.4 km/h 11.3 km/h 73% 0.0 mm 1176 W/m2
12:25 13.8 °C 8.6 °C 1021.7 hPa NW 4.7 km/h 14.5 km/h 71% 0.0 mm 357 W/m2
12:30 13.7 °C 8.7 °C 1021.7 hPa West 6.4 km/h 12.9 km/h 72% 0.0 mm 357 W/m2
12:35 13.8 °C 8.6 °C 1021.3 hPa WNW 7.9 km/h 8 km/h 71% 0.0 mm 264 W/m2
12:40 13.5 °C 8.1 °C 1021.7 hPa NNE 1.4 km/h 3.2 km/h 70% 0.0 mm 230 W/m2
12:45 13.7 °C 8.7 °C 1021.3 hPa West 11.1 km/h 11.3 km/h 72% 0.0 mm 1041 W/m2
12:50 14 °C 8.2 °C 1021.3 hPa West 6.4 km/h 9.7 km/h 68% 0.0 mm 976 W/m2
12:55 14.1 °C 7.8 °C 1021.3 hPa WNW 3.2 km/h 9.7 km/h 66% 0.0 mm 997 W/m2
13:00 14.2 °C 7.9 °C 1021.3 hPa West 6.4 km/h 20.9 km/h 66% 0.0 mm 991 W/m2
13:05 14.4 °C 8.6 °C 1021.3 hPa ENE 4.7 km/h 9.7 km/h 68% 0.0 mm 1071 W/m2
13:10 14.5 °C 8.7 °C 1021.3 hPa WNW 3.2 km/h 20.9 km/h 68% 0.0 mm 1120 W/m2
13:15 14.8 °C 8.7 °C 1021.0 hPa WNW 13 km/h 16.1 km/h 67% 0.0 mm 1063 W/m2
13:20 14.7 °C 8 °C 1021.0 hPa West 6.4 km/h 8 km/h 64% 0.0 mm 1020 W/m2
13:25 14.7 °C 8.4 °C 1021.0 hPa NW 3.2 km/h 16.1 km/h 66% 0.0 mm 1035 W/m2
13:30 15.1 °C 8.3 °C 1021.0 hPa NNW 1.4 km/h 6.4 km/h 64% 0.0 mm 972 W/m2
13:35 15.2 °C 8.2 °C 1020.7 hPa NW 1.4 km/h 4.8 km/h 63% 0.0 mm 861 W/m2
13:40 15.3 °C 8.8 °C 1020.7 hPa South 3.2 km/h 4.8 km/h 65% 0.0 mm 904 W/m2
13:45 15.7 °C 8.9 °C 1020.7 hPa WNW 4.7 km/h 9.7 km/h 64% 0.0 mm 904 W/m2
13:50 15.7 °C 8 °C 1020.7 hPa WNW 3.2 km/h 12.9 km/h 60% 0.0 mm 860 W/m2
13:55 15.4 °C 8.2 °C 1020.7 hPa West 1.4 km/h 3.2 km/h 62% 0.0 mm 267 W/m2
14:00 15.3 °C 8.1 °C 1020.7 hPa Calm   6.4 km/h 62% 0.0 mm 288 W/m2
14:05 15.2 °C 8 °C 1020.3 hPa WNW 3.2 km/h 4.8 km/h 62% 0.0 mm 316 W/m2
14:10 15.3 °C 8.1 °C 1020.3 hPa NNW 3.2 km/h 4.8 km/h 62% 0.0 mm 863 W/m2
14:15 15.7 °C 8.4 °C 1020.3 hPa NNW 3.2 km/h 6.4 km/h 62% 0.0 mm 861 W/m2
14:20 16 °C 8.2 °C 1020.0 hPa West 3.2 km/h 6.4 km/h 60% 0.0 mm 274 W/m2
14:25 16 °C 8.2 °C 1020.0 hPa WNW 11.1 km/h 12.9 km/h 60% 0.0 mm 882 W/m2
14:30 15.8 °C 8 °C 1020.3 hPa WNW 4.7 km/h 11.3 km/h 60% 0.0 mm 881 W/m2
14:35 15.9 °C 8.1 °C 1020.0 hPa NNE 1.4 km/h 4.8 km/h 60% 0.0 mm 865 W/m2
14:40 16.1 °C 8.1 °C 1020.0 hPa WNW 1.4 km/h 9.7 km/h 59% 0.0 mm 396 W/m2
14:45 15.9 °C 7.9 °C 1020.0 hPa WNW 4.7 km/h 8 km/h 59% 0.0 mm 397 W/m2
14:50 16 °C 8 °C 1020.0 hPa WSW 7.9 km/h 11.3 km/h 59% 0.0 mm 780 W/m2
14:55 16.2 °C 7.9 °C 1019.6 hPa WNW 7.9 km/h 16.1 km/h 58% 0.0 mm 589 W/m2
15:00 16.3 °C 8.3 °C 1019.6 hPa West 4.7 km/h 8 km/h 59% 0.0 mm 371 W/m2
15:05 16.2 °C 7.7 °C 1019.6 hPa ENE 1.4 km/h 8 km/h 57% 0.0 mm 466 W/m2
15:10 16.2 °C 8.2 °C 1019.6 hPa WNW 4.7 km/h 6.4 km/h 59% 0.0 mm 643 W/m2
15:15 16.3 °C 7.8 °C 1019.6 hPa NNW 4.7 km/h 4.8 km/h 57% 0.0 mm 603 W/m2
15:20 16.4 °C 7.6 °C 1019.6 hPa West 3.2 km/h 6.4 km/h 56% 0.0 mm 571 W/m2
15:25 16.6 °C 8.3 °C 1019.6 hPa WNW 6.4 km/h 6.4 km/h 58% 0.0 mm 531 W/m2
15:30 16.5 °C 7.7 °C 1019.3 hPa East 1.4 km/h 11.3 km/h 56% 0.0 mm 485 W/m2
15:35 16.4 °C 7.9 °C 1019.3 hPa NW 3.2 km/h 8 km/h 57% 0.0 mm 417 W/m2
15:40 16.6 °C 8 °C 1019.3 hPa SE 1.4 km/h 4.8 km/h 57% 0.0 mm 452 W/m2
15:45 16.6 °C 7.8 °C 1019.3 hPa ENE 7.9 km/h 16.1 km/h 56% 0.0 mm 494 W/m2
15:50 16.4 °C 7.9 °C 1019.0 hPa NW 3.2 km/h 9.7 km/h 57% 0.0 mm 538 W/m2
15:55 16.6 °C 7.8 °C 1019.0 hPa WNW 1.4 km/h 9.7 km/h 56% 0.0 mm 357 W/m2
16:00 16.6 °C 8.3 °C 1019.0 hPa North 3.2 km/h 4.8 km/h 58% 0.0 mm 489 W/m2
16:05 16.7 °C 7.9 °C 1018.6 hPa NW 3.2 km/h 9.7 km/h 56% 0.0 mm 487 W/m2
16:10 16.7 °C 8.1 °C 1018.6 hPa East 3.2 km/h 6.4 km/h 57% 0.0 mm 362 W/m2
16:15 16.7 °C 7.6 °C 1018.6 hPa North 6.4 km/h 8 km/h 55% 0.0 mm 325 W/m2
16:20 16.5 °C 7.7 °C 1018.6 hPa North 3.2 km/h 17.7 km/h 56% 0.0 mm 320 W/m2
16:25 16.4 °C 6.8 °C 1018.3 hPa NW 4.7 km/h 14.5 km/h 53% 0.0 mm 315 W/m2
16:30 16.3 °C 7.2 °C 1018.3 hPa NW 3.2 km/h 17.7 km/h 55% 0.0 mm 301 W/m2
16:35 16.3 °C 7.2 °C 1018.3 hPa WNW 13 km/h 14.5 km/h 55% 0.0 mm 294 W/m2
16:40 16.3 °C 7.5 °C 1018.3 hPa WNW 4.7 km/h 6.4 km/h 56% 0.0 mm 274 W/m2
16:45 16.3 °C 7.5 °C 1018.3 hPa ESE 3.2 km/h 9.7 km/h 56% 0.0 mm 213 W/m2
16:50 16.3 °C 7.5 °C 1018.3 hPa ENE 7.9 km/h 8 km/h 56% 0.0 mm 241 W/m2
16:55 16.3 °C 7.2 °C 1018.0 hPa NE 1.4 km/h 3.2 km/h 55% 0.0 mm 218 W/m2
17:01 16.3 °C 7.8 °C 1018.0 hPa NW 4.7 km/h 11.3 km/h 57% 0.0 mm 209 W/m2
17:06 16.3 °C 7.8 °C 1018.0 hPa NW 1.4 km/h 6.4 km/h 57% 0.0 mm 237 W/m2
17:11 16.4 °C 7.1 °C 1018.0 hPa NW 1.4 km/h 4.8 km/h 54% 0.0 mm 220 W/m2
17:16 16.3 °C 7.2 °C 1018.0 hPa WNW 1.4 km/h 6.4 km/h 55% 0.0 mm 206 W/m2
17:21 16.3 °C 7.5 °C 1018.0 hPa WNW 4.7 km/h 6.4 km/h 56% 0.0 mm 183 W/m2
17:26 16.2 °C 7.4 °C 1018.0 hPa WSW 1.4 km/h 14.5 km/h 56% 0.0 mm 192 W/m2
17:31 16.1 °C 7.3 °C 1018.0 hPa WNW 1.4 km/h 16.1 km/h 56% 0.0 mm 232 W/m2
17:36 16.1 °C 7.3 °C 1017.6 hPa North 4.7 km/h 9.7 km/h 56% 0.0 mm 255 W/m2
17:41 16.2 °C 8.2 °C 1017.6 hPa Calm   16.1 km/h 59% 0.0 mm 236 W/m2
17:46 16.3 °C 7.5 °C 1017.6 hPa NW 7.9 km/h 8 km/h 56% 0.0 mm 234 W/m2
17:51 16.3 °C 7.5 °C 1017.6 hPa East 3.2 km/h 14.5 km/h 56% 0.0 mm 237 W/m2
17:56 16.3 °C 7.5 °C 1017.3 hPa WNW 3.2 km/h 9.7 km/h 56% 0.0 mm 281 W/m2
18:01 16.3 °C 7.5 °C 1017.3 hPa NNW 3.2 km/h 3.2 km/h 56% 0.0 mm 197 W/m2
18:06 16.3 °C 7.2 °C 1017.3 hPa ENE 3.2 km/h 8 km/h 55% 0.0 mm 183 W/m2
18:11 16.3 °C 7.5 °C 1017.3 hPa NW 4.7 km/h 6.4 km/h 56% 0.0 mm 146 W/m2
18:16 16.2 °C 7.4 °C 1017.3 hPa NNW 4.7 km/h 4.8 km/h 56% 0.0 mm 167 W/m2
18:21 16.2 °C 7.4 °C 1016.9 hPa WNW 1.4 km/h 4.8 km/h 56% 0.0 mm 185 W/m2
18:26 16.2 °C 7.7 °C 1016.9 hPa West 6.4 km/h 6.4 km/h 57% 0.0 mm 160 W/m2
18:31 16.2 °C 7.4 °C 1016.9 hPa Calm   4.8 km/h 56% 0.0 mm 155 W/m2
18:36 16.3 °C 7.5 °C 1016.9 hPa West 1.4 km/h 9.7 km/h 56% 0.0 mm 146 W/m2
18:41 16.2 °C 7.7 °C 1016.9 hPa North 3.2 km/h 4.8 km/h 57% 0.0 mm 135 W/m2
18:46 16.2 °C 7.7 °C 1016.9 hPa WNW 4.7 km/h 9.7 km/h 57% 0.0 mm 125 W/m2
18:51 16.2 °C 7.7 °C 1016.9 hPa NW 1.4 km/h 4.8 km/h 57% 0.0 mm 134 W/m2
18:56 16.2 °C 7.4 °C 1016.9 hPa WSW 1.4 km/h 12.9 km/h 56% 0.0 mm 118 W/m2
19:01 16.2 °C 7.4 °C 1016.9 hPa Calm   4.8 km/h 56% 0.0 mm 86 W/m2
19:06 16.1 °C 7.1 °C 1016.9 hPa NNW 1.4 km/h 9.7 km/h 55% 0.0 mm 79 W/m2
19:11 16.1 °C 7.1 °C 1016.6 hPa WSW 1.4 km/h 4.8 km/h 55% 0.0 mm 90 W/m2
19:16 16 °C 7.2 °C 1016.3 hPa East 3.2 km/h 3.2 km/h 56% 0.0 mm 88 W/m2
19:21 16 °C 7 °C 1016.3 hPa Calm   1.6 km/h 55% 0.0 mm 100 W/m2
19:26 16 °C 7 °C 1016.6 hPa NNW 1.4 km/h 4.8 km/h 55% 0.0 mm 93 W/m2
19:31 15.9 °C 6.9 °C 1016.6 hPa NNW 3.2 km/h 9.7 km/h 55% 0.0 mm 93 W/m2
19:36 15.8 °C 7.3 °C 1016.6 hPa NNW 1.4 km/h 3.2 km/h 57% 0.0 mm 93 W/m2
19:41 15.8 °C 6.8 °C 1016.3 hPa Calm   4.8 km/h 55% 0.0 mm 95 W/m2
19:46 15.8 °C 7.3 °C 1016.3 hPa Calm     57% 0.0 mm 90 W/m2
19:51 15.7 °C 7.2 °C 1016.3 hPa Calm   1.6 km/h 57% 0.0 mm 67 W/m2
19:56 15.6 °C 7.1 °C 1016.3 hPa ESE 1.4 km/h 3.2 km/h 57% 0.0 mm 62 W/m2
20:01 15.6 °C 7.4 °C 1016.3 hPa Calm   1.6 km/h 58% 0.0 mm 49 W/m2
20:06 15.4 °C 6.7 °C 1016.3 hPa WSW 1.4 km/h 3.2 km/h 56% 0.0 mm 44 W/m2
20:11 15.3 °C 6.8 °C 1016.3 hPa WNW 3.2 km/h 4.8 km/h 57% 0.0 mm 42 W/m2
20:16 15.3 °C 6.8 °C 1015.9 hPa East 3.2 km/h 4.8 km/h 57% 0.0 mm 39 W/m2
20:21 15.2 °C 7.5 °C 1015.9 hPa East 1.4 km/h 1.6 km/h 60% 0.0 mm 39 W/m2
20:26 15.1 °C 7.9 °C 1015.9 hPa Calm   4.8 km/h 62% 0.0 mm 32 W/m2
20:31 15 °C 8 °C 1015.9 hPa Calm     63% 0.0 mm 25 W/m2
20:36 14.8 °C 7.8 °C 1015.6 hPa Calm   1.6 km/h 63% 0.0 mm 23 W/m2
20:41 14.7 °C 8.2 °C 1015.6 hPa East 1.4 km/h 1.6 km/h 65% 0.0 mm 23 W/m2
20:46 14.6 °C 8.3 °C 1015.6 hPa Calm     66% 0.0 mm 19 W/m2
20:51 14.5 °C 8.4 °C 1015.2 hPa ENE 1.4 km/h 4.8 km/h 67% 0.0 mm 14 W/m2
20:56 14.3 °C 8.3 °C 1015.2 hPa Calm   1.6 km/h 67% 0.0 mm 11 W/m2
21:01 14.1 °C 8.5 °C 1015.2 hPa Calm   4.8 km/h 69% 0.0 mm 7 W/m2
21:06 13.9 °C 8.5 °C 1015.2 hPa Calm   1.6 km/h 70% 0.0 mm 7 W/m2
21:11 13.8 °C 8.6 °C 1015.2 hPa Calm   1.6 km/h 71% 0.0 mm 5 W/m2
21:16 13.7 °C 8.5 °C 1015.2 hPa ENE 1.4 km/h 1.6 km/h 71% 0.0 mm 0 W/m2
21:21 13.5 °C 8.8 °C 1014.9 hPa Calm   1.6 km/h 73% 0.0 mm 0 W/m2
21:26 13.3 °C 8.6 °C 1014.9 hPa ENE 1.4 km/h 1.6 km/h 73% 0.0 mm 5 W/m2
21:31 13.1 °C 8.4 °C 1014.9 hPa Calm     73% 0.0 mm 0 W/m2
21:36 12.9 °C 8.4 °C 1014.9 hPa ENE 1.4 km/h 1.6 km/h 74% 0.0 mm 0 W/m2
21:42 12.8 °C 8.3 °C 1014.9 hPa Calm     74% 0.0 mm 0 W/m2
21:47 12.6 °C 8.3 °C 1014.9 hPa ENE 1.4 km/h 1.6 km/h 75% 0.0 mm 0 W/m2
21:52 12.5 °C 8.2 °C 1014.9 hPa Calm   1.6 km/h 75% 0.0 mm 0 W/m2
21:57 12.4 °C 8.1 °C 1014.6 hPa Calm     75% 0.0 mm 0 W/m2
22:02 12.3 °C 8.2 °C 1014.6 hPa Calm     76% 0.0 mm 0 W/m2
22:07 12.3 °C 8.4 °C 1014.6 hPa SE 3.2 km/h 3.2 km/h 77% 0.0 mm 0 W/m2
22:12 12.2 °C 8.3 °C 1014.6 hPa SE 1.4 km/h 4.8 km/h 77% 0.0 mm 0 W/m2
22:17 12.2 °C 8.3 °C 1014.6 hPa SE 1.4 km/h 3.2 km/h 77% 0.0 mm 0 W/m2
22:22 12.2 °C 8.1 °C 1014.6 hPa Calm     76% 0.0 mm 0 W/m2
22:27 12.2 °C 8.1 °C 1014.2 hPa Calm   3.2 km/h 76% 0.0 mm 0 W/m2
22:32 12.2 °C 7.9 °C 1014.6 hPa Calm   3.2 km/h 75% 0.0 mm 0 W/m2
22:37 12.3 °C 7.8 °C 1014.6 hPa SSW 3.2 km/h 3.2 km/h 74% 0.0 mm 0 W/m2
22:42 12.6 °C 7.7 °C 1014.6 hPa Calm   1.6 km/h 72% 0.0 mm 0 W/m2
22:47 12.8 °C 7.5 °C 1014.2 hPa WNW 1.4 km/h 4.8 km/h 70% 0.0 mm 0 W/m2
22:52 13.2 °C 7.6 °C 1014.2 hPa NNE 1.4 km/h 4.8 km/h 69% 0.0 mm 0 W/m2
22:57 13.4 °C 7.6 °C 1014.2 hPa North 1.4 km/h 4.8 km/h 68% 0.0 mm 0 W/m2
23:02 13.6 °C 7.6 °C 1014.2 hPa NE 1.4 km/h 3.2 km/h 67% 0.0 mm 0 W/m2
23:07 13.7 °C 7.7 °C 1013.9 hPa NNE 1.4 km/h 3.2 km/h 67% 0.0 mm 0 W/m2
23:12 13.6 °C 7.8 °C 1013.9 hPa NE 3.2 km/h 6.4 km/h 68% 0.0 mm 0 W/m2
23:17 13.7 °C 7.5 °C 1013.9 hPa North 1.4 km/h 6.4 km/h 66% 0.0 mm 0 W/m2
23:22 13.7 °C 7.5 °C 1013.5 hPa NNW 4.7 km/h 6.4 km/h 66% 0.0 mm 0 W/m2
23:27 13.7 °C 7.7 °C 1013.5 hPa NNE 3.2 km/h 4.8 km/h 67% 0.0 mm 0 W/m2
23:32 13.7 °C 7.5 °C 1013.5 hPa NNE 3.2 km/h 3.2 km/h 66% 0.0 mm 0 W/m2
23:37 13.7 °C 7.5 °C 1013.5 hPa NNW 3.2 km/h 4.8 km/h 66% 0.0 mm 0 W/m2
23:42 13.7 °C 7.5 °C 1013.5 hPa Calm   6.4 km/h 66% 0.0 mm 0 W/m2
23:47 13.7 °C 7.5 °C 1013.5 hPa Calm   8 km/h 66% 0.0 mm 0 W/m2
23:52 13.7 °C 7.5 °C 1013.5 hPa NNE 3.2 km/h 4.8 km/h 66% 0.0 mm 0 W/m2
23:57 13.7 °C 7.5 °C 1013.2 hPa ENE 3.2 km/h 8 km/h 66% 0.0 mm 0 W/m2
Juneau County Weather
Compliments of Weather Underground - 2 mb